sensor_id;sensor_type;location;lat;lon;timestamp;P1;durP1;ratioP1;P2;durP2;ratioP2
63379;SDS011;53160;55.014;73.156;2022-07-29T00:01:31;12.50;;;12.25;;
63379;SDS011;53160;55.014;73.156;2022-07-29T00:03:57;10.75;;;10.75;;
63379;SDS011;53160;55.014;73.156;2022-07-29T00:06:23;13.25;;;12.75;;
63379;SDS011;53160;55.014;73.156;2022-07-29T00:08:59;10.00;;;10.00;;
63379;SDS011;53160;55.014;73.156;2022-07-29T00:11:26;12.00;;;12.00;;
63379;SDS011;53160;55.014;73.156;2022-07-29T00:13:52;11.75;;;11.75;;
63379;SDS011;53160;55.014;73.156;2022-07-29T00:16:20;13.00;;;12.50;;
63379;SDS011;53160;55.014;73.156;2022-07-29T00:18:46;11.75;;;11.00;;
63379;SDS011;53160;55.014;73.156;2022-07-29T00:21:12;12.75;;;12.25;;
63379;SDS011;53160;55.014;73.156;2022-07-29T00:23:39;16.00;;;15.25;;
63379;SDS011;53160;55.014;73.156;2022-07-29T00:26:12;18.00;;;17.50;;
63379;SDS011;53160;55.014;73.156;2022-07-29T00:28:44;18.25;;;18.25;;
63379;SDS011;53160;55.014;73.156;2022-07-29T00:31:10;23.75;;;23.00;;
63379;SDS011;53160;55.014;73.156;2022-07-29T00:33:36;28.60;;;28.60;;
63379;SDS011;53160;55.014;73.156;2022-07-29T00:36:02;50.00;;;42.00;;
63379;SDS011;53160;55.014;73.156;2022-07-29T00:38:29;28.20;;;27.40;;
63379;SDS011;53160;55.014;73.156;2022-07-29T00:40:55;12.25;;;12.25;;
63379;SDS011;53160;55.014;73.156;2022-07-29T00:43:22;10.50;;;9.50;;
63379;SDS011;53160;55.014;73.156;2022-07-29T00:45:48;7.25;;;7.00;;
63379;SDS011;53160;55.014;73.156;2022-07-29T00:48:14;7.00;;;7.00;;
63379;SDS011;53160;55.014;73.156;2022-07-29T00:50:50;7.50;;;7.00;;
63379;SDS011;53160;55.014;73.156;2022-07-29T00:53:16;7.25;;;6.50;;
63379;SDS011;53160;55.014;73.156;2022-07-29T00:55:48;5.25;;;5.25;;
63379;SDS011;53160;55.014;73.156;2022-07-29T00:58:17;6.50;;;6.50;;
63379;SDS011;53160;55.014;73.156;2022-07-29T01:00:45;5.00;;;4.25;;
63379;SDS011;53160;55.014;73.156;2022-07-29T01:03:21;6.00;;;5.75;;
63379;SDS011;53160;55.014;73.156;2022-07-29T01:05:47;6.00;;;6.00;;
63379;SDS011;53160;55.014;73.156;2022-07-29T01:08:18;8.00;;;7.00;;
63379;SDS011;53160;55.014;73.156;2022-07-29T01:10:46;4.75;;;4.75;;
63379;SDS011;53160;55.014;73.156;2022-07-29T01:13:22;6.00;;;6.00;;
63379;SDS011;53160;55.014;73.156;2022-07-29T01:15:51;5.00;;;5.00;;
63379;SDS011;53160;55.014;73.156;2022-07-29T01:18:32;5.50;;;5.25;;
63379;SDS011;53160;55.014;73.156;2022-07-29T01:23:48;7.67;;;7.33;;
63379;SDS011;53160;55.014;73.156;2022-07-29T01:31:50;7.50;;;7.50;;
63379;SDS011;53160;55.014;73.156;2022-07-29T01:34:19;6.50;;;6.00;;
63379;SDS011;53160;55.014;73.156;2022-07-29T01:36:48;5.00;;;5.00;;
63379;SDS011;53160;55.014;73.156;2022-07-29T01:39:18;7.75;;;7.75;;
63379;SDS011;53160;55.014;73.156;2022-07-29T01:41:57;7.00;;;7.00;;
63379;SDS011;53160;55.014;73.156;2022-07-29T01:44:27;5.00;;;5.00;;
63379;SDS011;53160;55.014;73.156;2022-07-29T01:46:58;5.00;;;4.75;;
63379;SDS011;53160;55.014;73.156;2022-07-29T01:49:27;5.00;;;4.50;;
63379;SDS011;53160;55.014;73.156;2022-07-29T01:51:57;5.00;;;4.50;;
63379;SDS011;53160;55.014;73.156;2022-07-29T01:54:34;6.00;;;6.00;;
63379;SDS011;53160;55.014;73.156;2022-07-29T01:57:01;8.25;;;8.00;;
63379;SDS011;53160;55.014;73.156;2022-07-29T01:59:29;6.00;;;6.00;;
63379;SDS011;53160;55.014;73.156;2022-07-29T02:01:57;4.75;;;3.50;;
63379;SDS011;53160;55.014;73.156;2022-07-29T02:04:24;9.00;;;9.00;;
63379;SDS011;53160;55.014;73.156;2022-07-29T02:07:00;7.25;;;7.25;;
63379;SDS011;53160;55.014;73.156;2022-07-29T02:09:28;8.00;;;8.00;;
63379;SDS011;53160;55.014;73.156;2022-07-29T02:11:54;8.50;;;8.50;;
63379;SDS011;53160;55.014;73.156;2022-07-29T02:14:22;8.25;;;8.00;;
63379;SDS011;53160;55.014;73.156;2022-07-29T02:16:49;9.25;;;8.75;;
63379;SDS011;53160;55.014;73.156;2022-07-29T02:19:23;10.50;;;9.75;;
63379;SDS011;53160;55.014;73.156;2022-07-29T02:21:51;9.00;;;8.00;;
63379;SDS011;53160;55.014;73.156;2022-07-29T02:24:19;8.75;;;8.25;;
63379;SDS011;53160;55.014;73.156;2022-07-29T02:26:46;8.25;;;8.25;;
63379;SDS011;53160;55.014;73.156;2022-07-29T02:29:24;5.25;;;5.00;;
63379;SDS011;53160;55.014;73.156;2022-07-29T02:31:51;9.50;;;9.00;;
63379;SDS011;53160;55.014;73.156;2022-07-29T02:34:19;8.50;;;8.25;;
63379;SDS011;53160;55.014;73.156;2022-07-29T02:36:48;9.25;;;8.50;;
63379;SDS011;53160;55.014;73.156;2022-07-29T02:39:15;7.00;;;6.50;;
63379;SDS011;53160;55.014;73.156;2022-07-29T02:44:13;10.50;;;9.25;;
63379;SDS011;53160;55.014;73.156;2022-07-29T02:46:45;7.00;;;7.00;;
63379;SDS011;53160;55.014;73.156;2022-07-29T02:52:11;8.00;;;7.75;;
63379;SDS011;53160;55.014;73.156;2022-07-29T02:57:32;7.75;;;7.75;;
63379;SDS011;53160;55.014;73.156;2022-07-29T03:00:01;6.00;;;6.00;;
63379;SDS011;53160;55.014;73.156;2022-07-29T03:02:30;9.25;;;8.50;;
63379;SDS011;53160;55.014;73.156;2022-07-29T03:05:10;7.25;;;7.25;;
63379;SDS011;53160;55.014;73.156;2022-07-29T03:07:57;6.50;;;6.25;;
63379;SDS011;53160;55.014;73.156;2022-07-29T03:10:25;7.25;;;6.75;;
63379;SDS011;53160;55.014;73.156;2022-07-29T03:12:51;9.00;;;8.25;;
63379;SDS011;53160;55.014;73.156;2022-07-29T03:15:18;4.00;;;4.00;;
63379;SDS011;53160;55.014;73.156;2022-07-29T03:17:44;5.75;;;5.75;;
63379;SDS011;53160;55.014;73.156;2022-07-29T03:20:16;7.75;;;6.00;;
63379;SDS011;53160;55.014;73.156;2022-07-29T03:22:43;7.75;;;7.75;;
63379;SDS011;53160;55.014;73.156;2022-07-29T03:25:13;6.50;;;6.00;;
63379;SDS011;53160;55.014;73.156;2022-07-29T03:27:46;7.75;;;7.75;;
63379;SDS011;53160;55.014;73.156;2022-07-29T03:30:12;41.00;;;36.00;;
63379;SDS011;53160;55.014;73.156;2022-07-29T03:32:40;19.75;;;19.00;;
63379;SDS011;53160;55.014;73.156;2022-07-29T03:35:07;10.00;;;9.50;;
63379;SDS011;53160;55.014;73.156;2022-07-29T03:37:41;9.75;;;8.50;;
63379;SDS011;53160;55.014;73.156;2022-07-29T03:40:08;8.00;;;5.50;;
63379;SDS011;53160;55.014;73.156;2022-07-29T03:42:41;6.00;;;5.00;;
63379;SDS011;53160;55.014;73.156;2022-07-29T03:45:10;7.75;;;6.75;;
63379;SDS011;53160;55.014;73.156;2022-07-29T03:47:39;6.00;;;5.00;;
63379;SDS011;53160;55.014;73.156;2022-07-29T03:50:11;5.50;;;5.50;;
63379;SDS011;53160;55.014;73.156;2022-07-29T03:52:45;4.00;;;4.00;;
63379;SDS011;53160;55.014;73.156;2022-07-29T03:55:12;6.00;;;5.00;;
63379;SDS011;53160;55.014;73.156;2022-07-29T03:57:39;5.25;;;5.25;;
63379;SDS011;53160;55.014;73.156;2022-07-29T04:00:12;7.50;;;7.00;;
63379;SDS011;53160;55.014;73.156;2022-07-29T04:02:39;5.50;;;5.25;;
63379;SDS011;53160;55.014;73.156;2022-07-29T04:05:07;7.00;;;6.00;;
63379;SDS011;53160;55.014;73.156;2022-07-29T04:07:37;7.00;;;7.00;;
63379;SDS011;53160;55.014;73.156;2022-07-29T04:10:03;8.75;;;8.75;;
63379;SDS011;53160;55.014;73.156;2022-07-29T04:12:29;7.00;;;7.00;;
63379;SDS011;53160;55.014;73.156;2022-07-29T04:15:05;6.75;;;6.75;;
63379;SDS011;53160;55.014;73.156;2022-07-29T04:17:32;5.25;;;5.25;;
63379;SDS011;53160;55.014;73.156;2022-07-29T04:19:58;4.00;;;4.00;;
63379;SDS011;53160;55.014;73.156;2022-07-29T04:22:24;6.75;;;6.75;;
63379;SDS011;53160;55.014;73.156;2022-07-29T04:24:50;8.25;;;7.50;;
63379;SDS011;53160;55.014;73.156;2022-07-29T04:27:17;8.50;;;8.00;;
63379;SDS011;53160;55.014;73.156;2022-07-29T04:29:49;9.25;;;8.50;;
63379;SDS011;53160;55.014;73.156;2022-07-29T04:32:16;10.25;;;10.25;;
63379;SDS011;53160;55.014;73.156;2022-07-29T04:34:47;10.25;;;10.25;;
63379;SDS011;53160;55.014;73.156;2022-07-29T04:37:21;12.75;;;12.75;;
63379;SDS011;53160;55.014;73.156;2022-07-29T04:39:57;15.50;;;14.75;;
63379;SDS011;53160;55.014;73.156;2022-07-29T04:42:32;22.50;;;19.50;;
63379;SDS011;53160;55.014;73.156;2022-07-29T04:44:59;23.75;;;22.50;;
63379;SDS011;53160;55.014;73.156;2022-07-29T04:47:29;22.00;;;19.25;;
63379;SDS011;53160;55.014;73.156;2022-07-29T04:49:55;19.50;;;19.25;;
63379;SDS011;53160;55.014;73.156;2022-07-29T04:52:22;21.75;;;21.25;;
63379;SDS011;53160;55.014;73.156;2022-07-29T04:54:55;17.50;;;16.50;;
63379;SDS011;53160;55.014;73.156;2022-07-29T04:57:21;11.50;;;11.00;;
63379;SDS011;53160;55.014;73.156;2022-07-29T04:59:48;16.00;;;15.50;;
63379;SDS011;53160;55.014;73.156;2022-07-29T05:02:14;17.75;;;16.00;;
63379;SDS011;53160;55.014;73.156;2022-07-29T05:04:41;14.00;;;14.00;;
63379;SDS011;53160;55.014;73.156;2022-07-29T05:07:11;15.25;;;15.25;;
63379;SDS011;53160;55.014;73.156;2022-07-29T05:09:43;19.50;;;18.50;;
63379;SDS011;53160;55.014;73.156;2022-07-29T05:12:14;16.00;;;16.00;;
63379;SDS011;53160;55.014;73.156;2022-07-29T05:14:41;19.50;;;19.50;;
63379;SDS011;53160;55.014;73.156;2022-07-29T05:17:07;21.00;;;20.50;;
63379;SDS011;53160;55.014;73.156;2022-07-29T05:19:33;19.75;;;19.75;;
63379;SDS011;53160;55.014;73.156;2022-07-29T05:21:59;22.50;;;21.25;;
63379;SDS011;53160;55.014;73.156;2022-07-29T05:24:26;25.00;;;24.50;;
63379;SDS011;53160;55.014;73.156;2022-07-29T05:26:52;16.75;;;15.50;;
63379;SDS011;53160;55.014;73.156;2022-07-29T05:29:19;21.50;;;21.00;;
63379;SDS011;53160;55.014;73.156;2022-07-29T05:31:45;17.50;;;17.00;;
63379;SDS011;53160;55.014;73.156;2022-07-29T05:34:11;23.50;;;23.25;;
63379;SDS011;53160;55.014;73.156;2022-07-29T05:36:39;21.50;;;21.00;;
63379;SDS011;53160;55.014;73.156;2022-07-29T05:39:05;14.25;;;14.25;;
63379;SDS011;53160;55.014;73.156;2022-07-29T05:41:32;26.75;;;23.75;;
63379;SDS011;53160;55.014;73.156;2022-07-29T05:43:58;23.75;;;23.00;;
63379;SDS011;53160;55.014;73.156;2022-07-29T05:46:25;18.50;;;17.50;;
63379;SDS011;53160;55.014;73.156;2022-07-29T05:49:01;21.00;;;19.50;;
63379;SDS011;53160;55.014;73.156;2022-07-29T05:51:28;20.75;;;19.75;;
63379;SDS011;53160;55.014;73.156;2022-07-29T05:53:55;16.75;;;16.25;;
63379;SDS011;53160;55.014;73.156;2022-07-29T05:56:26;16.00;;;16.00;;
63379;SDS011;53160;55.014;73.156;2022-07-29T05:58:58;14.75;;;14.75;;
63379;SDS011;53160;55.014;73.156;2022-07-29T06:01:28;15.50;;;15.50;;
63379;SDS011;53160;55.014;73.156;2022-07-29T06:03:54;15.75;;;15.00;;
63379;SDS011;53160;55.014;73.156;2022-07-29T06:06:24;17.75;;;17.25;;
63379;SDS011;53160;55.014;73.156;2022-07-29T06:08:51;16.50;;;16.25;;
63379;SDS011;53160;55.014;73.156;2022-07-29T06:11:17;20.50;;;20.50;;
63379;SDS011;53160;55.014;73.156;2022-07-29T06:13:43;23.25;;;22.25;;
63379;SDS011;53160;55.014;73.156;2022-07-29T06:16:09;15.25;;;15.25;;
63379;SDS011;53160;55.014;73.156;2022-07-29T06:18:45;18.50;;;18.00;;
63379;SDS011;53160;55.014;73.156;2022-07-29T06:21:11;18.50;;;18.25;;
63379;SDS011;53160;55.014;73.156;2022-07-29T06:23:38;24.50;;;22.25;;
63379;SDS011;53160;55.014;73.156;2022-07-29T06:26:04;17.00;;;15.75;;
63379;SDS011;53160;55.014;73.156;2022-07-29T06:28:31;20.00;;;19.75;;
63379;SDS011;53160;55.014;73.156;2022-07-29T06:30:57;19.00;;;18.50;;
63379;SDS011;53160;55.014;73.156;2022-07-29T06:33:24;24.40;;;23.80;;
63379;SDS011;53160;55.014;73.156;2022-07-29T06:35:50;26.00;;;25.00;;
63379;SDS011;53160;55.014;73.156;2022-07-29T06:38:16;20.00;;;19.25;;
63379;SDS011;53160;55.014;73.156;2022-07-29T06:40:43;18.50;;;18.00;;
63379;SDS011;53160;55.014;73.156;2022-07-29T06:43:29;18.50;;;18.50;;
63379;SDS011;53160;55.014;73.156;2022-07-29T06:46:00;14.50;;;14.50;;
63379;SDS011;53160;55.014;73.156;2022-07-29T06:48:27;19.00;;;19.00;;
63379;SDS011;53160;55.014;73.156;2022-07-29T06:50:54;18.25;;;18.25;;
63379;SDS011;53160;55.014;73.156;2022-07-29T06:53:22;20.50;;;18.25;;
63379;SDS011;53160;55.014;73.156;2022-07-29T06:55:48;15.75;;;14.75;;
63379;SDS011;53160;55.014;73.156;2022-07-29T06:58:14;18.00;;;17.75;;
63379;SDS011;53160;55.014;73.156;2022-07-29T07:00:49;21.25;;;20.50;;
63379;SDS011;53160;55.014;73.156;2022-07-29T07:03:25;17.00;;;16.50;;
63379;SDS011;53160;55.014;73.156;2022-07-29T07:05:53;16.00;;;16.00;;
63379;SDS011;53160;55.014;73.156;2022-07-29T07:08:20;21.50;;;19.00;;
63379;SDS011;53160;55.014;73.156;2022-07-29T07:10:46;16.75;;;16.50;;
63379;SDS011;53160;55.014;73.156;2022-07-29T07:13:12;16.50;;;16.50;;
63379;SDS011;53160;55.014;73.156;2022-07-29T07:15:43;19.75;;;19.75;;
63379;SDS011;53160;55.014;73.156;2022-07-29T07:18:09;19.00;;;18.25;;
63379;SDS011;53160;55.014;73.156;2022-07-29T07:20:36;13.25;;;12.50;;
63379;SDS011;53160;55.014;73.156;2022-07-29T07:23:12;15.25;;;15.25;;
63379;SDS011;53160;55.014;73.156;2022-07-29T07:25:38;17.25;;;17.25;;
63379;SDS011;53160;55.014;73.156;2022-07-29T07:28:04;19.00;;;18.00;;
63379;SDS011;53160;55.014;73.156;2022-07-29T07:30:31;17.00;;;16.50;;
63379;SDS011;53160;55.014;73.156;2022-07-29T07:33:06;18.75;;;18.00;;
63379;SDS011;53160;55.014;73.156;2022-07-29T07:35:32;17.00;;;15.75;;
63379;SDS011;53160;55.014;73.156;2022-07-29T07:37:59;15.50;;;15.00;;
63379;SDS011;53160;55.014;73.156;2022-07-29T07:40:25;18.00;;;16.75;;
63379;SDS011;53160;55.014;73.156;2022-07-29T07:42:55;13.25;;;12.25;;
63379;SDS011;53160;55.014;73.156;2022-07-29T07:45:21;17.00;;;17.00;;
63379;SDS011;53160;55.014;73.156;2022-07-29T07:47:52;18.00;;;18.00;;
63379;SDS011;53160;55.014;73.156;2022-07-29T07:50:25;16.00;;;15.75;;
63379;SDS011;53160;55.014;73.156;2022-07-29T07:53:02;14.75;;;14.75;;
63379;SDS011;53160;55.014;73.156;2022-07-29T07:55:28;18.00;;;17.00;;
63379;SDS011;53160;55.014;73.156;2022-07-29T07:57:55;17.00;;;17.00;;
63379;SDS011;53160;55.014;73.156;2022-07-29T08:00:21;14.00;;;14.00;;
63379;SDS011;53160;55.014;73.156;2022-07-29T08:02:48;19.00;;;19.00;;
63379;SDS011;53160;55.014;73.156;2022-07-29T08:05:15;15.25;;;15.00;;
63379;SDS011;53160;55.014;73.156;2022-07-29T08:07:43;18.25;;;17.75;;
63379;SDS011;53160;55.014;73.156;2022-07-29T08:10:10;16.80;;;15.00;;
63379;SDS011;53160;55.014;73.156;2022-07-29T08:12:36;18.25;;;18.00;;
63379;SDS011;53160;55.014;73.156;2022-07-29T08:15:02;18.75;;;15.75;;
63379;SDS011;53160;55.014;73.156;2022-07-29T08:17:29;18.75;;;18.00;;
63379;SDS011;53160;55.014;73.156;2022-07-29T08:19:55;16.20;;;16.20;;
63379;SDS011;53160;55.014;73.156;2022-07-29T08:22:23;13.50;;;13.50;;
63379;SDS011;53160;55.014;73.156;2022-07-29T08:24:54;16.00;;;15.75;;
63379;SDS011;53160;55.014;73.156;2022-07-29T08:27:22;16.00;;;16.00;;
63379;SDS011;53160;55.014;73.156;2022-07-29T08:29:48;14.00;;;13.60;;
63379;SDS011;53160;55.014;73.156;2022-07-29T08:32:15;16.20;;;15.00;;
63379;SDS011;53160;55.014;73.156;2022-07-29T08:34:42;18.00;;;16.25;;
63379;SDS011;53160;55.014;73.156;2022-07-29T08:37:10;17.33;;;17.33;;
63379;SDS011;53160;55.014;73.156;2022-07-29T08:39:36;13.50;;;13.25;;
63379;SDS011;53160;55.014;73.156;2022-07-29T08:42:12;11.75;;;11.75;;
63379;SDS011;53160;55.014;73.156;2022-07-29T08:44:50;15.00;;;14.25;;
63379;SDS011;53160;55.014;73.156;2022-07-29T08:47:21;14.50;;;13.00;;
63379;SDS011;53160;55.014;73.156;2022-07-29T08:49:47;14.00;;;13.25;;
63379;SDS011;53160;55.014;73.156;2022-07-29T08:52:14;15.00;;;15.00;;
63379;SDS011;53160;55.014;73.156;2022-07-29T08:54:52;14.20;;;14.20;;
63379;SDS011;53160;55.014;73.156;2022-07-29T08:57:19;11.00;;;10.80;;
63379;SDS011;53160;55.014;73.156;2022-07-29T08:59:46;14.60;;;14.60;;
63379;SDS011;53160;55.014;73.156;2022-07-29T09:02:17;15.00;;;14.40;;
63379;SDS011;53160;55.014;73.156;2022-07-29T09:04:55;15.60;;;15.60;;
63379;SDS011;53160;55.014;73.156;2022-07-29T09:07:25;14.20;;;14.00;;
63379;SDS011;53160;55.014;73.156;2022-07-29T09:09:52;13.60;;;13.60;;
63379;SDS011;53160;55.014;73.156;2022-07-29T09:12:18;12.20;;;12.00;;
63379;SDS011;53160;55.014;73.156;2022-07-29T09:14:44;12.00;;;12.00;;
63379;SDS011;53160;55.014;73.156;2022-07-29T09:17:11;14.40;;;14.00;;
63379;SDS011;53160;55.014;73.156;2022-07-29T09:19:37;15.40;;;14.60;;
63379;SDS011;53160;55.014;73.156;2022-07-29T09:22:04;15.40;;;14.40;;
63379;SDS011;53160;55.014;73.156;2022-07-29T09:24:43;15.60;;;15.60;;
63379;SDS011;53160;55.014;73.156;2022-07-29T09:27:11;18.20;;;16.80;;
63379;SDS011;53160;55.014;73.156;2022-07-29T09:29:55;15.00;;;14.20;;
63379;SDS011;53160;55.014;73.156;2022-07-29T09:32:22;13.20;;;12.60;;
63379;SDS011;53160;55.014;73.156;2022-07-29T09:34:49;13.20;;;13.20;;
63379;SDS011;53160;55.014;73.156;2022-07-29T09:37:27;17.20;;;16.00;;
63379;SDS011;53160;55.014;73.156;2022-07-29T09:39:54;17.00;;;16.20;;
63379;SDS011;53160;55.014;73.156;2022-07-29T09:42:27;19.20;;;18.80;;
63379;SDS011;53160;55.014;73.156;2022-07-29T09:44:57;16.40;;;14.80;;
63379;SDS011;53160;55.014;73.156;2022-07-29T09:47:42;17.40;;;16.60;;
63379;SDS011;53160;55.014;73.156;2022-07-29T09:50:11;17.50;;;17.25;;
63379;SDS011;53160;55.014;73.156;2022-07-29T09:52:50;20.25;;;19.00;;
63379;SDS011;53160;55.014;73.156;2022-07-29T09:55:27;18.00;;;17.25;;
63379;SDS011;53160;55.014;73.156;2022-07-29T09:57:53;16.75;;;16.25;;
63379;SDS011;53160;55.014;73.156;2022-07-29T10:00:20;13.00;;;13.00;;
63379;SDS011;53160;55.014;73.156;2022-07-29T10:02:50;15.00;;;14.00;;
63379;SDS011;53160;55.014;73.156;2022-07-29T10:05:21;13.80;;;13.00;;
63379;SDS011;53160;55.014;73.156;2022-07-29T10:07:54;16.60;;;16.60;;
63379;SDS011;53160;55.014;73.156;2022-07-29T10:10:24;12.40;;;12.40;;
63379;SDS011;53160;55.014;73.156;2022-07-29T10:15:23;14.60;;;14.60;;
63379;SDS011;53160;55.014;73.156;2022-07-29T10:17:53;17.80;;;16.00;;
63379;SDS011;53160;55.014;73.156;2022-07-29T10:20:20;15.20;;;14.60;;
63379;SDS011;53160;55.014;73.156;2022-07-29T10:22:47;16.20;;;16.00;;
63379;SDS011;53160;55.014;73.156;2022-07-29T10:25:14;13.80;;;13.80;;
63379;SDS011;53160;55.014;73.156;2022-07-29T10:27:40;9.00;;;9.00;;
63379;SDS011;53160;55.014;73.156;2022-07-29T10:30:06;16.20;;;15.00;;
63379;SDS011;53160;55.014;73.156;2022-07-29T10:33:07;9.80;;;9.60;;
63379;SDS011;53160;55.014;73.156;2022-07-29T10:38:41;16.00;;;16.00;;
63379;SDS011;53160;55.014;73.156;2022-07-29T10:44:09;15.75;;;15.75;;
63379;SDS011;53160;55.014;73.156;2022-07-29T10:46:39;18.50;;;17.50;;
63379;SDS011;53160;55.014;73.156;2022-07-29T10:57:29;17.00;;;17.00;;
63379;SDS011;53160;55.014;73.156;2022-07-29T11:05:16;16.75;;;16.00;;
63379;SDS011;53160;55.014;73.156;2022-07-29T11:10:29;17.25;;;16.75;;
63379;SDS011;53160;55.014;73.156;2022-07-29T11:13:06;16.00;;;15.25;;
63379;SDS011;53160;55.014;73.156;2022-07-29T11:18:17;15.00;;;15.00;;
63379;SDS011;53160;55.014;73.156;2022-07-29T11:20:44;17.60;;;17.60;;
63379;SDS011;53160;55.014;73.156;2022-07-29T11:25:43;15.20;;;14.60;;
63379;SDS011;53160;55.014;73.156;2022-07-29T11:28:12;15.20;;;14.60;;
63379;SDS011;53160;55.014;73.156;2022-07-29T11:30:52;14.40;;;14.40;;
63379;SDS011;53160;55.014;73.156;2022-07-29T11:33:32;13.00;;;13.00;;
63379;SDS011;53160;55.014;73.156;2022-07-29T11:36:10;15.80;;;15.40;;
63379;SDS011;53160;55.014;73.156;2022-07-29T11:38:36;15.80;;;15.80;;
63379;SDS011;53160;55.014;73.156;2022-07-29T11:41:22;15.00;;;15.00;;
63379;SDS011;53160;55.014;73.156;2022-07-29T11:43:51;15.75;;;14.25;;
63379;SDS011;53160;55.014;73.156;2022-07-29T11:47:02;21.80;;;19.80;;
63379;SDS011;53160;55.014;73.156;2022-07-29T11:49:03;15.25;;;14.00;;
63379;SDS011;53160;55.014;73.156;2022-07-29T11:51:30;16.20;;;14.60;;
63379;SDS011;53160;55.014;73.156;2022-07-29T11:53:57;14.20;;;13.80;;
63379;SDS011;53160;55.014;73.156;2022-07-29T11:56:31;13.60;;;13.60;;
63379;SDS011;53160;55.014;73.156;2022-07-29T11:59:06;13.60;;;13.60;;
63379;SDS011;53160;55.014;73.156;2022-07-29T12:01:36;12.00;;;12.00;;
63379;SDS011;53160;55.014;73.156;2022-07-29T12:04:05;16.00;;;16.00;;
63379;SDS011;53160;55.014;73.156;2022-07-29T12:06:35;13.00;;;13.00;;
63379;SDS011;53160;55.014;73.156;2022-07-29T12:09:08;14.40;;;14.40;;
63379;SDS011;53160;55.014;73.156;2022-07-29T12:11:45;15.00;;;15.00;;
63379;SDS011;53160;55.014;73.156;2022-07-29T12:14:27;12.50;;;12.50;;
63379;SDS011;53160;55.014;73.156;2022-07-29T12:17:04;13.60;;;13.00;;
63379;SDS011;53160;55.014;73.156;2022-07-29T12:19:30;14.80;;;14.80;;
63379;SDS011;53160;55.014;73.156;2022-07-29T12:22:07;13.20;;;13.00;;
63379;SDS011;53160;55.014;73.156;2022-07-29T12:24:43;8.00;;;7.00;;
63379;SDS011;53160;55.014;73.156;2022-07-29T12:27:09;13.25;;;13.25;;
63379;SDS011;53160;55.014;73.156;2022-07-29T12:29:40;12.75;;;12.75;;
63379;SDS011;53160;55.014;73.156;2022-07-29T12:32:07;9.00;;;8.00;;
63379;SDS011;53160;55.014;73.156;2022-07-29T12:34:33;11.00;;;11.00;;
63379;SDS011;53160;55.014;73.156;2022-07-29T12:36:59;14.00;;;13.25;;
63379;SDS011;53160;55.014;73.156;2022-07-29T12:39:26;13.00;;;13.00;;
63379;SDS011;53160;55.014;73.156;2022-07-29T12:41:53;11.75;;;11.75;;
63379;SDS011;53160;55.014;73.156;2022-07-29T12:44:19;13.25;;;12.75;;
63379;SDS011;53160;55.014;73.156;2022-07-29T12:46:46;9.00;;;9.00;;
63379;SDS011;53160;55.014;73.156;2022-07-29T12:49:26;10.50;;;9.25;;
63379;SDS011;53160;55.014;73.156;2022-07-29T12:51:53;9.50;;;9.50;;
63379;SDS011;53160;55.014;73.156;2022-07-29T12:54:19;12.00;;;10.80;;
63379;SDS011;53160;55.014;73.156;2022-07-29T12:56:45;12.50;;;11.00;;
63379;SDS011;53160;55.014;73.156;2022-07-29T13:01:47;13.40;;;13.40;;
63379;SDS011;53160;55.014;73.156;2022-07-29T13:04:25;10.75;;;10.50;;
63379;SDS011;53160;55.014;73.156;2022-07-29T13:06:58;11.00;;;11.00;;
63379;SDS011;53160;55.014;73.156;2022-07-29T13:09:35;10.75;;;10.00;;
63379;SDS011;53160;55.014;73.156;2022-07-29T13:12:01;10.00;;;9.50;;
63379;SDS011;53160;55.014;73.156;2022-07-29T13:14:32;11.00;;;10.00;;
63379;SDS011;53160;55.014;73.156;2022-07-29T13:17:09;9.00;;;8.00;;
63379;SDS011;53160;55.014;73.156;2022-07-29T13:19:40;9.00;;;9.00;;
63379;SDS011;53160;55.014;73.156;2022-07-29T13:22:07;8.50;;;8.25;;
63379;SDS011;53160;55.014;73.156;2022-07-29T13:24:33;8.75;;;8.00;;
63379;SDS011;53160;55.014;73.156;2022-07-29T13:27:00;12.25;;;12.00;;
63379;SDS011;53160;55.014;73.156;2022-07-29T13:29:26;9.50;;;9.50;;
63379;SDS011;53160;55.014;73.156;2022-07-29T13:31:52;11.75;;;11.25;;
63379;SDS011;53160;55.014;73.156;2022-07-29T13:34:18;13.00;;;11.25;;
63379;SDS011;53160;55.014;73.156;2022-07-29T13:36:48;9.50;;;9.50;;
63379;SDS011;53160;55.014;73.156;2022-07-29T13:39:14;9.00;;;9.00;;
63379;SDS011;53160;55.014;73.156;2022-07-29T13:41:51;10.75;;;10.00;;
63379;SDS011;53160;55.014;73.156;2022-07-29T13:44:23;10.75;;;10.75;;
63379;SDS011;53160;55.014;73.156;2022-07-29T13:47:00;12.25;;;12.00;;
63379;SDS011;53160;55.014;73.156;2022-07-29T13:49:26;11.00;;;9.50;;
63379;SDS011;53160;55.014;73.156;2022-07-29T13:51:53;9.50;;;9.50;;
63379;SDS011;53160;55.014;73.156;2022-07-29T13:54:19;7.00;;;7.00;;
63379;SDS011;53160;55.014;73.156;2022-07-29T13:56:45;8.75;;;8.75;;
63379;SDS011;53160;55.014;73.156;2022-07-29T13:59:12;9.50;;;9.50;;
63379;SDS011;53160;55.014;73.156;2022-07-29T14:01:38;13.25;;;13.25;;
63379;SDS011;53160;55.014;73.156;2022-07-29T14:04:07;7.75;;;7.50;;
63379;SDS011;53160;55.014;73.156;2022-07-29T14:06:51;11.25;;;11.25;;
63379;SDS011;53160;55.014;73.156;2022-07-29T14:09:17;12.00;;;11.50;;
63379;SDS011;53160;55.014;73.156;2022-07-29T14:11:55;11.75;;;11.25;;
63379;SDS011;53160;55.014;73.156;2022-07-29T14:14:21;8.25;;;8.25;;
63379;SDS011;53160;55.014;73.156;2022-07-29T14:16:47;12.50;;;12.00;;
63379;SDS011;53160;55.014;73.156;2022-07-29T14:19:14;11.25;;;10.25;;
63379;SDS011;53160;55.014;73.156;2022-07-29T14:21:41;11.00;;;11.00;;
63379;SDS011;53160;55.014;73.156;2022-07-29T14:24:07;10.50;;;10.50;;
63379;SDS011;53160;55.014;73.156;2022-07-29T14:26:33;7.50;;;7.50;;
63379;SDS011;53160;55.014;73.156;2022-07-29T14:28:59;11.00;;;10.50;;
63379;SDS011;53160;55.014;73.156;2022-07-29T14:31:26;6.50;;;6.50;;
63379;SDS011;53160;55.014;73.156;2022-07-29T14:33:57;10.00;;;9.50;;
63379;SDS011;53160;55.014;73.156;2022-07-29T14:36:23;7.00;;;7.00;;
63379;SDS011;53160;55.014;73.156;2022-07-29T14:38:59;10.50;;;10.50;;
63379;SDS011;53160;55.014;73.156;2022-07-29T14:41:26;11.25;;;11.25;;
63379;SDS011;53160;55.014;73.156;2022-07-29T14:43:54;13.75;;;13.50;;
63379;SDS011;53160;55.014;73.156;2022-07-29T14:46:23;9.75;;;9.75;;
63379;SDS011;53160;55.014;73.156;2022-07-29T14:48:49;11.25;;;11.25;;
63379;SDS011;53160;55.014;73.156;2022-07-29T14:51:20;9.50;;;9.00;;
63379;SDS011;53160;55.014;73.156;2022-07-29T14:53:49;11.00;;;10.75;;
63379;SDS011;53160;55.014;73.156;2022-07-29T14:56:15;10.00;;;9.75;;
63379;SDS011;53160;55.014;73.156;2022-07-29T14:58:42;8.50;;;8.50;;
63379;SDS011;53160;55.014;73.156;2022-07-29T15:01:08;8.75;;;7.75;;
63379;SDS011;53160;55.014;73.156;2022-07-29T15:03:34;1.25;;;0.50;;
63379;SDS011;53160;55.014;73.156;2022-07-29T15:06:11;10.25;;;10.25;;
63379;SDS011;53160;55.014;73.156;2022-07-29T15:08:37;12.75;;;12.75;;
63379;SDS011;53160;55.014;73.156;2022-07-29T15:11:13;14.00;;;13.50;;
63379;SDS011;53160;55.014;73.156;2022-07-29T15:13:40;10.50;;;10.00;;
63379;SDS011;53160;55.014;73.156;2022-07-29T15:16:06;17.00;;;17.00;;
63379;SDS011;53160;55.014;73.156;2022-07-29T15:18:32;10.75;;;10.75;;